sensor_id;sensor_type;location;lat;lon;timestamp;P1;durP1;ratioP1;P2;durP2;ratioP2
18596;SDS011;9428;50.950;6.912;2024-03-22T00:01:46;25.02;;;14.07;;
18596;SDS011;9428;50.950;6.912;2024-03-22T00:04:33;26.98;;;14.13;;
18596;SDS011;9428;50.950;6.912;2024-03-22T00:07:20;29.27;;;15.07;;
18596;SDS011;9428;50.950;6.912;2024-03-22T00:10:09;24.83;;;14.65;;
18596;SDS011;9428;50.950;6.912;2024-03-22T00:12:55;24.15;;;13.32;;
18596;SDS011;9428;50.950;6.912;2024-03-22T00:15:42;28.33;;;13.93;;
18596;SDS011;9428;50.950;6.912;2024-03-22T00:18:30;23.58;;;12.85;;
18596;SDS011;9428;50.950;6.912;2024-03-22T00:21:18;24.02;;;13.30;;
18596;SDS011;9428;50.950;6.912;2024-03-22T00:24:04;23.20;;;12.70;;
18596;SDS011;9428;50.950;6.912;2024-03-22T00:26:53;28.48;;;12.68;;
18596;SDS011;9428;50.950;6.912;2024-03-22T00:29:39;22.27;;;12.45;;
18596;SDS011;9428;50.950;6.912;2024-03-22T00:32:27;25.90;;;12.80;;
18596;SDS011;9428;50.950;6.912;2024-03-22T00:35:13;25.23;;;12.50;;
18596;SDS011;9428;50.950;6.912;2024-03-22T00:38:01;21.35;;;12.77;;
18596;SDS011;9428;50.950;6.912;2024-03-22T00:40:47;23.58;;;13.07;;
18596;SDS011;9428;50.950;6.912;2024-03-22T00:43:36;23.98;;;12.32;;
18596;SDS011;9428;50.950;6.912;2024-03-22T00:46:22;20.58;;;11.57;;
18596;SDS011;9428;50.950;6.912;2024-03-22T00:49:09;20.73;;;12.55;;
18596;SDS011;9428;50.950;6.912;2024-03-22T00:51:56;23.42;;;12.55;;
18596;SDS011;9428;50.950;6.912;2024-03-22T00:54:43;23.60;;;12.32;;
18596;SDS011;9428;50.950;6.912;2024-03-22T00:57:29;23.05;;;12.82;;
18596;SDS011;9428;50.950;6.912;2024-03-22T01:00:18;20.55;;;11.90;;
18596;SDS011;9428;50.950;6.912;2024-03-22T01:03:04;23.90;;;11.70;;
18596;SDS011;9428;50.950;6.912;2024-03-22T01:05:52;21.15;;;11.70;;
18596;SDS011;9428;50.950;6.912;2024-03-22T01:08:38;19.90;;;11.73;;
18596;SDS011;9428;50.950;6.912;2024-03-22T01:11:25;18.88;;;11.13;;
18596;SDS011;9428;50.950;6.912;2024-03-22T01:14:12;21.58;;;10.90;;
18596;SDS011;9428;50.950;6.912;2024-03-22T01:17:00;18.83;;;11.02;;
18596;SDS011;9428;50.950;6.912;2024-03-22T01:19:47;18.10;;;9.88;;
18596;SDS011;9428;50.950;6.912;2024-03-22T01:22:34;17.20;;;10.45;;
18596;SDS011;9428;50.950;6.912;2024-03-22T01:25:22;18.60;;;10.07;;
18596;SDS011;9428;50.950;6.912;2024-03-22T01:28:09;19.15;;;10.18;;
18596;SDS011;9428;50.950;6.912;2024-03-22T01:30:56;19.35;;;10.82;;
18596;SDS011;9428;50.950;6.912;2024-03-22T01:33:44;18.20;;;10.90;;
18596;SDS011;9428;50.950;6.912;2024-03-22T01:36:31;19.90;;;10.80;;
18596;SDS011;9428;50.950;6.912;2024-03-22T01:42:06;18.10;;;10.20;;
18596;SDS011;9428;50.950;6.912;2024-03-22T01:44:52;17.40;;;10.65;;
18596;SDS011;9428;50.950;6.912;2024-03-22T01:47:40;16.40;;;10.23;;
18596;SDS011;9428;50.950;6.912;2024-03-22T01:50:28;17.85;;;11.05;;
18596;SDS011;9428;50.950;6.912;2024-03-22T01:53:16;18.40;;;11.07;;
18596;SDS011;9428;50.950;6.912;2024-03-22T01:56:03;17.73;;;10.25;;
18596;SDS011;9428;50.950;6.912;2024-03-22T01:58:50;20.92;;;11.00;;
18596;SDS011;9428;50.950;6.912;2024-03-22T02:01:37;17.23;;;10.45;;
18596;SDS011;9428;50.950;6.912;2024-03-22T02:04:26;18.10;;;9.63;;
18596;SDS011;9428;50.950;6.912;2024-03-22T02:07:14;18.85;;;10.20;;
18596;SDS011;9428;50.950;6.912;2024-03-22T02:10:01;16.98;;;9.75;;
18596;SDS011;9428;50.950;6.912;2024-03-22T02:12:48;18.48;;;10.10;;
18596;SDS011;9428;50.950;6.912;2024-03-22T02:15:35;22.27;;;9.80;;
18596;SDS011;9428;50.950;6.912;2024-03-22T02:18:21;19.10;;;10.48;;
18596;SDS011;9428;50.950;6.912;2024-03-22T02:21:08;19.50;;;9.90;;
18596;SDS011;9428;50.950;6.912;2024-03-22T02:23:56;18.48;;;9.75;;
18596;SDS011;9428;50.950;6.912;2024-03-22T02:26:43;16.40;;;9.32;;
18596;SDS011;9428;50.950;6.912;2024-03-22T02:29:30;17.42;;;9.40;;
18596;SDS011;9428;50.950;6.912;2024-03-22T02:32:17;17.25;;;9.93;;
18596;SDS011;9428;50.950;6.912;2024-03-22T02:35:04;15.45;;;10.30;;
18596;SDS011;9428;50.950;6.912;2024-03-22T02:37:51;19.13;;;10.90;;
18596;SDS011;9428;50.950;6.912;2024-03-22T02:40:40;16.25;;;10.57;;
18596;SDS011;9428;50.950;6.912;2024-03-22T02:43:28;17.05;;;10.48;;
18596;SDS011;9428;50.950;6.912;2024-03-22T02:46:15;17.17;;;10.38;;
18596;SDS011;9428;50.950;6.912;2024-03-22T02:49:02;15.65;;;10.57;;
18596;SDS011;9428;50.950;6.912;2024-03-22T02:51:49;18.88;;;10.25;;
18596;SDS011;9428;50.950;6.912;2024-03-22T02:54:36;17.40;;;10.10;;
18596;SDS011;9428;50.950;6.912;2024-03-22T02:57:24;19.27;;;10.73;;
18596;SDS011;9428;50.950;6.912;2024-03-22T03:00:13;17.00;;;9.93;;
18596;SDS011;9428;50.950;6.912;2024-03-22T03:03:00;17.48;;;10.38;;
18596;SDS011;9428;50.950;6.912;2024-03-22T03:05:47;14.73;;;9.65;;
18596;SDS011;9428;50.950;6.912;2024-03-22T03:08:33;15.23;;;9.50;;
18596;SDS011;9428;50.950;6.912;2024-03-22T03:11:21;13.90;;;9.48;;
18596;SDS011;9428;50.950;6.912;2024-03-22T03:14:08;14.48;;;9.18;;
18596;SDS011;9428;50.950;6.912;2024-03-22T03:16:56;13.30;;;8.82;;
18596;SDS011;9428;50.950;6.912;2024-03-22T03:19:43;15.30;;;9.68;;
18596;SDS011;9428;50.950;6.912;2024-03-22T03:22:30;15.52;;;8.07;;
18596;SDS011;9428;50.950;6.912;2024-03-22T03:25:17;17.70;;;9.55;;
18596;SDS011;9428;50.950;6.912;2024-03-22T03:28:03;13.52;;;8.43;;
18596;SDS011;9428;50.950;6.912;2024-03-22T03:30:54;16.38;;;8.68;;
18596;SDS011;9428;50.950;6.912;2024-03-22T03:33:41;13.88;;;8.30;;
18596;SDS011;9428;50.950;6.912;2024-03-22T03:36:28;17.58;;;9.05;;
18596;SDS011;9428;50.950;6.912;2024-03-22T03:39:15;15.05;;;9.07;;
18596;SDS011;9428;50.950;6.912;2024-03-22T03:42:01;15.65;;;9.25;;
18596;SDS011;9428;50.950;6.912;2024-03-22T03:44:48;14.63;;;8.50;;
18596;SDS011;9428;50.950;6.912;2024-03-22T03:47:36;15.27;;;8.45;;
18596;SDS011;9428;50.950;6.912;2024-03-22T03:50:23;13.75;;;8.82;;
18596;SDS011;9428;50.950;6.912;2024-03-22T03:53:10;17.00;;;8.73;;
18596;SDS011;9428;50.950;6.912;2024-03-22T03:55:57;14.73;;;8.32;;
18596;SDS011;9428;50.950;6.912;2024-03-22T03:58:45;15.27;;;8.70;;
18596;SDS011;9428;50.950;6.912;2024-03-22T04:01:32;14.10;;;9.35;;
18596;SDS011;9428;50.950;6.912;2024-03-22T04:04:20;13.85;;;8.13;;
18596;SDS011;9428;50.950;6.912;2024-03-22T04:07:07;14.95;;;8.82;;
18596;SDS011;9428;50.950;6.912;2024-03-22T04:09:54;11.95;;;8.13;;
18596;SDS011;9428;50.950;6.912;2024-03-22T04:12:41;12.60;;;8.30;;
18596;SDS011;9428;50.950;6.912;2024-03-22T04:15:28;13.13;;;7.57;;
18596;SDS011;9428;50.950;6.912;2024-03-22T04:18:15;13.82;;;7.15;;
18596;SDS011;9428;50.950;6.912;2024-03-22T04:21:03;12.77;;;8.05;;
18596;SDS011;9428;50.950;6.912;2024-03-22T04:23:50;14.88;;;8.20;;
18596;SDS011;9428;50.950;6.912;2024-03-22T04:26:37;17.70;;;9.00;;
18596;SDS011;9428;50.950;6.912;2024-03-22T04:29:24;12.50;;;8.00;;
18596;SDS011;9428;50.950;6.912;2024-03-22T04:32:10;13.13;;;7.93;;
18596;SDS011;9428;50.950;6.912;2024-03-22T04:34:57;12.20;;;7.78;;
18596;SDS011;9428;50.950;6.912;2024-03-22T04:37:45;11.35;;;7.97;;
18596;SDS011;9428;50.950;6.912;2024-03-22T04:40:32;11.55;;;7.90;;
18596;SDS011;9428;50.950;6.912;2024-03-22T04:43:20;12.90;;;7.82;;
18596;SDS011;9428;50.950;6.912;2024-03-22T04:46:07;17.52;;;8.32;;
18596;SDS011;9428;50.950;6.912;2024-03-22T04:48:54;12.07;;;8.20;;
18596;SDS011;9428;50.950;6.912;2024-03-22T04:51:40;13.95;;;8.43;;
18596;SDS011;9428;50.950;6.912;2024-03-22T04:54:29;12.40;;;7.93;;
18596;SDS011;9428;50.950;6.912;2024-03-22T04:57:15;16.70;;;9.07;;
18596;SDS011;9428;50.950;6.912;2024-03-22T05:00:03;16.35;;;8.50;;
18596;SDS011;9428;50.950;6.912;2024-03-22T05:02:52;14.38;;;8.10;;
18596;SDS011;9428;50.950;6.912;2024-03-22T05:05:40;12.57;;;8.85;;
18596;SDS011;9428;50.950;6.912;2024-03-22T05:08:27;13.02;;;8.23;;
18596;SDS011;9428;50.950;6.912;2024-03-22T05:11:16;13.68;;;7.97;;
18596;SDS011;9428;50.950;6.912;2024-03-22T05:14:02;10.82;;;8.15;;
18596;SDS011;9428;50.950;6.912;2024-03-22T05:16:49;14.77;;;8.45;;
18596;SDS011;9428;50.950;6.912;2024-03-22T05:19:35;18.45;;;9.30;;
18596;SDS011;9428;50.950;6.912;2024-03-22T05:22:23;12.07;;;8.43;;
18596;SDS011;9428;50.950;6.912;2024-03-22T05:25:09;13.65;;;8.77;;
18596;SDS011;9428;50.950;6.912;2024-03-22T05:27:59;14.25;;;9.25;;
18596;SDS011;9428;50.950;6.912;2024-03-22T05:30:46;13.48;;;8.70;;
18596;SDS011;9428;50.950;6.912;2024-03-22T05:33:33;16.42;;;8.93;;
18596;SDS011;9428;50.950;6.912;2024-03-22T05:36:20;14.38;;;9.48;;
18596;SDS011;9428;50.950;6.912;2024-03-22T05:39:07;15.43;;;8.95;;
18596;SDS011;9428;50.950;6.912;2024-03-22T05:41:53;15.00;;;8.90;;
18596;SDS011;9428;50.950;6.912;2024-03-22T05:44:42;15.93;;;9.50;;
18596;SDS011;9428;50.950;6.912;2024-03-22T05:47:29;16.90;;;9.02;;
18596;SDS011;9428;50.950;6.912;2024-03-22T05:50:17;16.40;;;9.38;;
18596;SDS011;9428;50.950;6.912;2024-03-22T05:53:03;14.98;;;9.27;;
18596;SDS011;9428;50.950;6.912;2024-03-22T05:55:50;13.98;;;9.80;;
18596;SDS011;9428;50.950;6.912;2024-03-22T05:58:37;14.23;;;9.63;;
18596;SDS011;9428;50.950;6.912;2024-03-22T06:01:25;15.60;;;9.70;;
18596;SDS011;9428;50.950;6.912;2024-03-22T06:04:13;15.45;;;9.90;;
18596;SDS011;9428;50.950;6.912;2024-03-22T06:07:00;16.23;;;9.20;;
18596;SDS011;9428;50.950;6.912;2024-03-22T06:09:49;18.23;;;9.93;;
18596;SDS011;9428;50.950;6.912;2024-03-22T06:12:38;16.75;;;10.40;;
18596;SDS011;9428;50.950;6.912;2024-03-22T06:15:26;18.92;;;9.23;;
18596;SDS011;9428;50.950;6.912;2024-03-22T06:18:15;19.45;;;10.50;;
18596;SDS011;9428;50.950;6.912;2024-03-22T06:21:02;17.50;;;9.75;;
18596;SDS011;9428;50.950;6.912;2024-03-22T06:23:49;19.83;;;10.45;;
18596;SDS011;9428;50.950;6.912;2024-03-22T06:26:36;18.02;;;10.43;;
18596;SDS011;9428;50.950;6.912;2024-03-22T06:29:22;14.98;;;10.10;;
18596;SDS011;9428;50.950;6.912;2024-03-22T06:32:10;17.75;;;10.15;;
18596;SDS011;9428;50.950;6.912;2024-03-22T06:34:57;16.67;;;10.68;;
18596;SDS011;9428;50.950;6.912;2024-03-22T06:37:45;17.48;;;10.40;;
18596;SDS011;9428;50.950;6.912;2024-03-22T06:40:31;14.32;;;9.43;;
18596;SDS011;9428;50.950;6.912;2024-03-22T06:43:18;16.90;;;10.20;;
18596;SDS011;9428;50.950;6.912;2024-03-22T06:46:05;18.85;;;10.30;;
18596;SDS011;9428;50.950;6.912;2024-03-22T06:48:52;16.98;;;10.43;;
18596;SDS011;9428;50.950;6.912;2024-03-22T06:51:40;14.35;;;9.48;;
18596;SDS011;9428;50.950;6.912;2024-03-22T06:54:27;15.85;;;10.15;;
18596;SDS011;9428;50.950;6.912;2024-03-22T06:57:13;17.98;;;10.25;;
18596;SDS011;9428;50.950;6.912;2024-03-22T07:00:00;20.67;;;11.18;;
18596;SDS011;9428;50.950;6.912;2024-03-22T07:02:47;17.77;;;11.07;;
18596;SDS011;9428;50.950;6.912;2024-03-22T07:05:35;17.13;;;11.30;;
18596;SDS011;9428;50.950;6.912;2024-03-22T07:08:22;19.73;;;11.65;;
18596;SDS011;9428;50.950;6.912;2024-03-22T07:11:10;17.25;;;10.80;;
18596;SDS011;9428;50.950;6.912;2024-03-22T07:13:56;19.17;;;12.05;;
18596;SDS011;9428;50.950;6.912;2024-03-22T07:16:43;18.17;;;11.27;;
18596;SDS011;9428;50.950;6.912;2024-03-22T07:19:30;18.75;;;10.68;;
18596;SDS011;9428;50.950;6.912;2024-03-22T07:22:18;20.13;;;11.40;;
18596;SDS011;9428;50.950;6.912;2024-03-22T07:25:06;14.90;;;10.07;;
18596;SDS011;9428;50.950;6.912;2024-03-22T07:27:54;18.67;;;11.10;;
18596;SDS011;9428;50.950;6.912;2024-03-22T07:30:42;16.48;;;11.30;;
18596;SDS011;9428;50.950;6.912;2024-03-22T07:33:30;17.77;;;11.07;;
18596;SDS011;9428;50.950;6.912;2024-03-22T07:36:17;17.73;;;11.98;;
18596;SDS011;9428;50.950;6.912;2024-03-22T07:39:04;18.63;;;10.93;;
18596;SDS011;9428;50.950;6.912;2024-03-22T07:41:53;20.38;;;12.50;;
18596;SDS011;9428;50.950;6.912;2024-03-22T07:44:40;18.05;;;11.68;;
18596;SDS011;9428;50.950;6.912;2024-03-22T07:47:27;26.95;;;12.40;;
18596;SDS011;9428;50.950;6.912;2024-03-22T07:50:14;20.17;;;13.50;;
18596;SDS011;9428;50.950;6.912;2024-03-22T07:53:01;25.65;;;13.52;;
18596;SDS011;9428;50.950;6.912;2024-03-22T07:55:48;22.42;;;13.27;;
18596;SDS011;9428;50.950;6.912;2024-03-22T07:58:36;21.30;;;13.18;;
18596;SDS011;9428;50.950;6.912;2024-03-22T08:01:24;19.92;;;12.85;;
18596;SDS011;9428;50.950;6.912;2024-03-22T08:04:11;22.90;;;13.57;;
18596;SDS011;9428;50.950;6.912;2024-03-22T08:06:58;23.88;;;13.00;;
18596;SDS011;9428;50.950;6.912;2024-03-22T08:09:45;20.33;;;12.00;;
18596;SDS011;9428;50.950;6.912;2024-03-22T08:12:32;21.52;;;12.63;;
18596;SDS011;9428;50.950;6.912;2024-03-22T08:15:20;24.02;;;12.27;;
18596;SDS011;9428;50.950;6.912;2024-03-22T08:18:07;19.60;;;12.50;;
18596;SDS011;9428;50.950;6.912;2024-03-22T08:20:55;19.27;;;12.48;;
18596;SDS011;9428;50.950;6.912;2024-03-22T08:23:41;21.02;;;12.98;;
18596;SDS011;9428;50.950;6.912;2024-03-22T08:26:29;20.27;;;12.57;;
18596;SDS011;9428;50.950;6.912;2024-03-22T08:29:22;18.17;;;12.80;;
18596;SDS011;9428;50.950;6.912;2024-03-22T08:32:10;18.77;;;12.57;;
18596;SDS011;9428;50.950;6.912;2024-03-22T08:34:56;19.88;;;12.35;;
18596;SDS011;9428;50.950;6.912;2024-03-22T08:37:45;19.75;;;12.02;;
18596;SDS011;9428;50.950;6.912;2024-03-22T08:40:31;18.77;;;11.85;;
18596;SDS011;9428;50.950;6.912;2024-03-22T08:43:19;21.88;;;12.00;;
18596;SDS011;9428;50.950;6.912;2024-03-22T08:46:07;23.02;;;11.80;;
18596;SDS011;9428;50.950;6.912;2024-03-22T08:48:56;20.55;;;11.32;;
18596;SDS011;9428;50.950;6.912;2024-03-22T08:51:43;18.27;;;11.00;;
18596;SDS011;9428;50.950;6.912;2024-03-22T08:54:31;16.13;;;10.35;;
18596;SDS011;9428;50.950;6.912;2024-03-22T08:57:19;19.50;;;10.18;;
18596;SDS011;9428;50.950;6.912;2024-03-22T09:00:06;17.23;;;10.50;;
18596;SDS011;9428;50.950;6.912;2024-03-22T09:02:54;14.70;;;8.50;;
18596;SDS011;9428;50.950;6.912;2024-03-22T09:05:42;16.92;;;9.38;;
18596;SDS011;9428;50.950;6.912;2024-03-22T09:08:29;14.35;;;8.45;;
18596;SDS011;9428;50.950;6.912;2024-03-22T09:11:16;12.43;;;8.07;;
18596;SDS011;9428;50.950;6.912;2024-03-22T09:14:04;12.77;;;8.02;;
18596;SDS011;9428;50.950;6.912;2024-03-22T09:16:50;14.18;;;8.07;;
18596;SDS011;9428;50.950;6.912;2024-03-22T09:19:38;14.65;;;7.85;;
18596;SDS011;9428;50.950;6.912;2024-03-22T09:22:25;10.35;;;6.30;;
18596;SDS011;9428;50.950;6.912;2024-03-22T09:25:13;11.45;;;7.68;;
18596;SDS011;9428;50.950;6.912;2024-03-22T09:27:59;15.07;;;8.32;;
18596;SDS011;9428;50.950;6.912;2024-03-22T09:30:46;17.60;;;9.13;;
18596;SDS011;9428;50.950;6.912;2024-03-22T09:33:33;11.93;;;7.22;;
18596;SDS011;9428;50.950;6.912;2024-03-22T09:36:21;11.40;;;6.20;;
18596;SDS011;9428;50.950;6.912;2024-03-22T09:39:11;7.15;;;4.47;;
18596;SDS011;9428;50.950;6.912;2024-03-22T09:41:57;9.00;;;4.60;;
18596;SDS011;9428;50.950;6.912;2024-03-22T09:44:46;9.55;;;4.97;;
18596;SDS011;9428;50.950;6.912;2024-03-22T09:47:33;10.30;;;4.80;;
18596;SDS011;9428;50.950;6.912;2024-03-22T09:50:22;11.00;;;4.38;;
18596;SDS011;9428;50.950;6.912;2024-03-22T09:53:08;11.13;;;5.05;;
18596;SDS011;9428;50.950;6.912;2024-03-22T09:55:58;7.07;;;4.60;;
18596;SDS011;9428;50.950;6.912;2024-03-22T09:58:47;13.18;;;4.88;;
18596;SDS011;9428;50.950;6.912;2024-03-22T10:01:34;10.55;;;5.72;;
18596;SDS011;9428;50.950;6.912;2024-03-22T10:04:21;7.75;;;5.78;;
18596;SDS011;9428;50.950;6.912;2024-03-22T10:07:08;8.70;;;5.47;;
18596;SDS011;9428;50.950;6.912;2024-03-22T10:09:57;9.38;;;6.10;;
18596;SDS011;9428;50.950;6.912;2024-03-22T10:12:46;11.85;;;6.10;;
18596;SDS011;9428;50.950;6.912;2024-03-22T10:15:32;14.30;;;6.10;;
18596;SDS011;9428;50.950;6.912;2024-03-22T10:18:20;9.43;;;5.95;;
18596;SDS011;9428;50.950;6.912;2024-03-22T10:21:07;12.63;;;6.35;;
18596;SDS011;9428;50.950;6.912;2024-03-22T10:23:54;10.85;;;6.50;;
18596;SDS011;9428;50.950;6.912;2024-03-22T10:26:40;13.18;;;6.28;;
18596;SDS011;9428;50.950;6.912;2024-03-22T10:29:29;9.02;;;6.47;;
18596;SDS011;9428;50.950;6.912;2024-03-22T10:32:16;9.93;;;5.63;;
18596;SDS011;9428;50.950;6.912;2024-03-22T10:35:03;10.77;;;6.00;;
18596;SDS011;9428;50.950;6.912;2024-03-22T10:37:52;8.27;;;5.85;;
18596;SDS011;9428;50.950;6.912;2024-03-22T10:40:39;15.15;;;6.03;;
18596;SDS011;9428;50.950;6.912;2024-03-22T10:43:29;7.70;;;5.35;;
18596;SDS011;9428;50.950;6.912;2024-03-22T10:46:18;13.80;;;5.63;;
18596;SDS011;9428;50.950;6.912;2024-03-22T10:49:06;8.70;;;5.15;;
18596;SDS011;9428;50.950;6.912;2024-03-22T10:51:54;11.60;;;5.88;;
18596;SDS011;9428;50.950;6.912;2024-03-22T10:54:44;10.38;;;6.30;;
18596;SDS011;9428;50.950;6.912;2024-03-22T10:57:32;13.07;;;6.63;;
18596;SDS011;9428;50.950;6.912;2024-03-22T11:00:26;14.52;;;6.57;;
18596;SDS011;9428;50.950;6.912;2024-03-22T11:03:16;10.82;;;6.10;;
18596;SDS011;9428;50.950;6.912;2024-03-22T11:06:07;12.75;;;6.78;;
18596;SDS011;9428;50.950;6.912;2024-03-22T11:08:55;8.80;;;6.28;;
18596;SDS011;9428;50.950;6.912;2024-03-22T11:11:44;12.68;;;7.85;;
18596;SDS011;9428;50.950;6.912;2024-03-22T11:14:31;13.10;;;8.00;;
18596;SDS011;9428;50.950;6.912;2024-03-22T11:17:18;11.88;;;7.68;;
18596;SDS011;9428;50.950;6.912;2024-03-22T11:20:08;14.10;;;9.13;;
18596;SDS011;9428;50.950;6.912;2024-03-22T11:22:57;15.13;;;8.60;;
18596;SDS011;9428;50.950;6.912;2024-03-22T11:25:43;13.45;;;8.90;;
18596;SDS011;9428;50.950;6.912;2024-03-22T11:28:31;14.93;;;9.13;;
18596;SDS011;9428;50.950;6.912;2024-03-22T11:31:18;16.10;;;9.63;;
18596;SDS011;9428;50.950;6.912;2024-03-22T11:34:07;16.55;;;9.43;;
18596;SDS011;9428;50.950;6.912;2024-03-22T11:36:58;14.27;;;8.40;;
18596;SDS011;9428;50.950;6.912;2024-03-22T11:39:45;15.75;;;9.60;;
18596;SDS011;9428;50.950;6.912;2024-03-22T11:42:32;15.60;;;9.18;;
18596;SDS011;9428;50.950;6.912;2024-03-22T11:45:20;15.38;;;8.85;;
18596;SDS011;9428;50.950;6.912;2024-03-22T11:48:08;15.13;;;9.77;;
18596;SDS011;9428;50.950;6.912;2024-03-22T11:50:56;20.73;;;10.57;;
18596;SDS011;9428;50.950;6.912;2024-03-22T11:53:50;15.27;;;9.38;;
18596;SDS011;9428;50.950;6.912;2024-03-22T11:56:39;14.95;;;9.18;;
18596;SDS011;9428;50.950;6.912;2024-03-22T11:59:26;18.17;;;9.93;;
18596;SDS011;9428;50.950;6.912;2024-03-22T12:02:13;17.98;;;9.63;;
18596;SDS011;9428;50.950;6.912;2024-03-22T12:05:00;14.88;;;9.52;;
18596;SDS011;9428;50.950;6.912;2024-03-22T12:07:47;15.80;;;9.20;;
18596;SDS011;9428;50.950;6.912;2024-03-22T12:10:35;15.15;;;8.93;;
18596;SDS011;9428;50.950;6.912;2024-03-22T12:13:22;13.68;;;9.23;;
18596;SDS011;9428;50.950;6.912;2024-03-22T12:16:09;16.02;;;9.43;;
18596;SDS011;9428;50.950;6.912;2024-03-22T12:18:56;12.63;;;8.88;;
18596;SDS011;9428;50.950;6.912;2024-03-22T12:21:42;12.10;;;7.78;;
18596;SDS011;9428;50.950;6.912;2024-03-22T12:24:29;16.67;;;8.70;;
18596;SDS011;9428;50.950;6.912;2024-03-22T12:27:18;20.85;;;9.38;;
18596;SDS011;9428;50.950;6.912;2024-03-22T12:30:06;14.48;;;9.15;;
18596;SDS011;9428;50.950;6.912;2024-03-22T12:32:54;12.23;;;8.95;;
18596;SDS011;9428;50.950;6.912;2024-03-22T12:35:41;12.85;;;8.50;;
18596;SDS011;9428;50.950;6.912;2024-03-22T12:38:29;14.37;;;10.23;;
18596;SDS011;9428;50.950;6.912;2024-03-22T12:41:15;13.43;;;9.38;;
18596;SDS011;9428;50.950;6.912;2024-03-22T12:44:04;16.67;;;8.98;;
18596;SDS011;9428;50.950;6.912;2024-03-22T12:46:51;17.30;;;9.38;;
18596;SDS011;9428;50.950;6.912;2024-03-22T12:49:39;16.50;;;8.75;;
18596;SDS011;9428;50.950;6.912;2024-03-22T12:52:26;13.13;;;8.13;;
18596;SDS011;9428;50.950;6.912;2024-03-22T12:55:13;13.23;;;9.32;;
18596;SDS011;9428;50.950;6.912;2024-03-22T12:58:00;15.00;;;9.70;;
18596;SDS011;9428;50.950;6.912;2024-03-22T13:00:49;15.10;;;9.02;;
18596;SDS011;9428;50.950;6.912;2024-03-22T13:03:36;17.58;;;9.85;;
18596;SDS011;9428;50.950;6.912;2024-03-22T13:06:24;16.83;;;10.55;;
18596;SDS011;9428;50.950;6.912;2024-03-22T13:09:10;17.40;;;9.77;;
18596;SDS011;9428;50.950;6.912;2024-03-22T13:11:58;16.67;;;10.10;;
18596;SDS011;9428;50.950;6.912;2024-03-22T13:14:44;14.32;;;9.75;;
18596;SDS011;9428;50.950;6.912;2024-03-22T13:17:34;18.25;;;10.20;;
18596;SDS011;9428;50.950;6.912;2024-03-22T13:20:20;17.88;;;10.18;;
18596;SDS011;9428;50.950;6.912;2024-03-22T13:23:08;13.68;;;10.10;;
18596;SDS011;9428;50.950;6.912;2024-03-22T13:25:54;16.55;;;10.55;;
18596;SDS011;9428;50.950;6.912;2024-03-22T13:28:44;15.45;;;10.95;;
18596;SDS011;9428;50.950;6.912;2024-03-22T13:31:30;14.25;;;9.40;;
18596;SDS011;9428;50.950;6.912;2024-03-22T13:34:19;13.35;;;9.60;;
18596;SDS011;9428;50.950;6.912;2024-03-22T13:37:06;19.15;;;10.40;;
18596;SDS011;9428;50.950;6.912;2024-03-22T13:39:52;17.02;;;10.73;;
18596;SDS011;9428;50.950;6.912;2024-03-22T13:42:39;19.65;;;11.30;;
18596;SDS011;9428;50.950;6.912;2024-03-22T13:45:27;16.38;;;11.13;;
18596;SDS011;9428;50.950;6.912;2024-03-22T13:48:13;17.13;;;11.23;;
18596;SDS011;9428;50.950;6.912;2024-03-22T13:51:02;17.13;;;11.18;;
18596;SDS011;9428;50.950;6.912;2024-03-22T13:53:50;17.15;;;11.73;;
18596;SDS011;9428;50.950;6.912;2024-03-22T13:56:36;18.40;;;11.55;;
18596;SDS011;9428;50.950;6.912;2024-03-22T13:59:24;15.70;;;10.43;;
18596;SDS011;9428;50.950;6.912;2024-03-22T14:02:10;17.08;;;10.68;;
18596;SDS011;9428;50.950;6.912;2024-03-22T14:04:58;16.45;;;10.48;;
18596;SDS011;9428;50.950;6.912;2024-03-22T14:07:46;17.92;;;12.50;;
18596;SDS011;9428;50.950;6.912;2024-03-22T14:10:33;18.42;;;12.05;;
18596;SDS011;9428;50.950;6.912;2024-03-22T14:13:20;13.73;;;10.93;;
18596;SDS011;9428;50.950;6.912;2024-03-22T14:16:07;21.38;;;10.70;;
18596;SDS011;9428;50.950;6.912;2024-03-22T14:18:54;18.23;;;11.55;;
18596;SDS011;9428;50.950;6.912;2024-03-22T14:21:43;14.60;;;10.23;;
18596;SDS011;9428;50.950;6.912;2024-03-22T14:24:31;15.02;;;10.35;;
18596;SDS011;9428;50.950;6.912;2024-03-22T14:27:19;16.50;;;11.25;;
18596;SDS011;9428;50.950;6.912;2024-03-22T14:30:05;17.15;;;10.57;;
18596;SDS011;9428;50.950;6.912;2024-03-22T14:32:55;15.65;;;10.70;;
18596;SDS011;9428;50.950;6.912;2024-03-22T14:35:41;13.38;;;8.93;;
18596;SDS011;9428;50.950;6.912;2024-03-22T14:38:29;13.65;;;9.25;;
18596;SDS011;9428;50.950;6.912;2024-03-22T14:41:17;14.80;;;10.38;;
18596;SDS011;9428;50.950;6.912;2024-03-22T14:44:04;17.02;;;9.57;;
18596;SDS011;9428;50.950;6.912;2024-03-22T14:46:51;12.80;;;9.48;;
18596;SDS011;9428;50.950;6.912;2024-03-22T14:49:40;14.85;;;9.25;;
18596;SDS011;9428;50.950;6.912;2024-03-22T14:52:26;13.93;;;9.80;;
18596;SDS011;9428;50.950;6.912;2024-03-22T14:55:14;13.73;;;9.18;;
18596;SDS011;9428;50.950;6.912;2024-03-22T14:58:02;11.82;;;8.30;;
18596;SDS011;9428;50.950;6.912;2024-03-22T15:00:52;14.95;;;9.68;;
18596;SDS011;9428;50.950;6.912;2024-03-22T15:03:39;15.32;;;9.48;;
18596;SDS011;9428;50.950;6.912;2024-03-22T15:06:26;15.85;;;9.70;;
18596;SDS011;9428;50.950;6.912;2024-03-22T15:09:14;16.98;;;10.25;;
18596;SDS011;9428;50.950;6.912;2024-03-22T15:12:03;15.35;;;10.30;;
18596;SDS011;9428;50.950;6.912;2024-03-22T15:14:52;15.80;;;10.38;;
18596;SDS011;9428;50.950;6.912;2024-03-22T15:17:40;19.38;;;12.05;;
18596;SDS011;9428;50.950;6.912;2024-03-22T15:20:27;17.33;;;11.75;;
18596;SDS011;9428;50.950;6.912;2024-03-22T15:23:14;19.55;;;12.95;;
18596;SDS011;9428;50.950;6.912;2024-03-22T15:26:01;19.05;;;12.02;;
18596;SDS011;9428;50.950;6.912;2024-03-22T15:28:49;23.35;;;12.95;;
18596;SDS011;9428;50.950;6.912;2024-03-22T15:31:37;18.65;;;12.20;;
18596;SDS011;9428;50.950;6.912;2024-03-22T15:34:24;16.85;;;11.45;;
18596;SDS011;9428;50.950;6.912;2024-03-22T15:37:10;17.10;;;11.55;;
18596;SDS011;9428;50.950;6.912;2024-03-22T15:39:58;16.08;;;11.15;;
18596;SDS011;9428;50.950;6.912;2024-03-22T15:42:45;20.55;;;12.38;;
18596;SDS011;9428;50.950;6.912;2024-03-22T15:45:32;21.63;;;12.27;;
18596;SDS011;9428;50.950;6.912;2024-03-22T15:48:20;18.55;;;11.65;;
18596;SDS011;9428;50.950;6.912;2024-03-22T15:51:09;20.10;;;11.82;;
18596;SDS011;9428;50.950;6.912;2024-03-22T15:53:55;18.60;;;11.68;;
18596;SDS011;9428;50.950;6.912;2024-03-22T15:56:43;20.73;;;12.43;;
18596;SDS011;9428;50.950;6.912;2024-03-22T15:59:29;17.27;;;11.93;;
18596;SDS011;9428;50.950;6.912;2024-03-22T16:02:16;18.75;;;10.60;;
18596;SDS011;9428;50.950;6.912;2024-03-22T16:05:05;15.55;;;11.35;;
18596;SDS011;9428;50.950;6.912;2024-03-22T16:07:52;17.50;;;11.05;;
18596;SDS011;9428;50.950;6.912;2024-03-22T16:10:39;17.17;;;11.43;;
18596;SDS011;9428;50.950;6.912;2024-03-22T16:13:26;18.27;;;11.98;;
18596;SDS011;9428;50.950;6.912;2024-03-22T16:16:12;19.05;;;11.25;;
18596;SDS011;9428;50.950;6.912;2024-03-22T16:19:00;17.95;;;12.15;;
18596;SDS011;9428;50.950;6.912;2024-03-22T16:21:47;18.38;;;11.23;;
18596;SDS011;9428;50.950;6.912;2024-03-22T16:24:35;19.35;;;12.30;;
18596;SDS011;9428;50.950;6.912;2024-03-22T16:27:21;18.30;;;12.15;;
18596;SDS011;9428;50.950;6.912;2024-03-22T16:30:09;19.42;;;11.80;;
18596;SDS011;9428;50.950;6.912;2024-03-22T16:32:56;18.38;;;12.40;;
18596;SDS011;9428;50.950;6.912;2024-03-22T16:35:48;22.08;;;12.52;;
18596;SDS011;9428;50.950;6.912;2024-03-22T16:38:35;16.65;;;12.95;;
18596;SDS011;9428;50.950;6.912;2024-03-22T16:41:23;24.48;;;13.50;;
18596;SDS011;9428;50.950;6.912;2024-03-22T16:44:09;21.35;;;13.50;;